createdAt,value
2023-04-06T00:02:14.733Z,61.91
2023-04-06T00:04:45.217Z,61.98
2023-04-06T00:07:14.608Z,61.83
2023-04-06T00:09:44.970Z,62.01
2023-04-06T00:12:14.381Z,61.97
2023-04-06T00:14:43.751Z,62.41
2023-04-06T00:17:13.273Z,62.44
2023-04-06T00:19:42.719Z,62.12
2023-04-06T00:22:12.817Z,62.16
2023-04-06T00:24:42.172Z,62.12
2023-04-06T00:27:11.843Z,62.13
2023-04-06T00:29:41.508Z,62.06
2023-04-06T00:32:11.355Z,62.28
2023-04-06T00:34:41.782Z,62.38
2023-04-06T00:37:13.511Z,62.77
2023-04-06T00:39:42.838Z,62.56
2023-04-06T00:42:15.614Z,62.13
2023-04-06T00:44:46.034Z,62.31
2023-04-06T00:47:15.933Z,62.66
2023-04-06T00:49:46.606Z,63.01
2023-04-06T00:52:17.224Z,63.06
2023-04-06T00:54:51.944Z,63.45
2023-04-06T00:57:22.718Z,63.51
2023-04-06T00:59:57.594Z,64.03
2023-04-06T01:02:27.400Z,63.88
2023-04-06T01:04:58.160Z,63.62
2023-04-06T01:07:41.668Z,63.78
2023-04-06T01:10:30.240Z,63.94
2023-04-06T01:13:05.346Z,63.86
2023-04-06T01:16:04.489Z,63.08
2023-04-06T01:18:45.796Z,63.15
2023-04-06T01:21:19.887Z,63.18
2023-04-06T01:24:26.217Z,63.18
2023-04-06T01:27:07.688Z,63.24
2023-04-06T01:29:46.667Z,63.31
2023-04-06T01:32:19.138Z,63.30
2023-04-06T01:34:52.774Z,63.43
2023-04-06T01:37:24.294Z,63.23
2023-04-06T01:39:55.608Z,62.96
2023-04-06T01:42:36.813Z,62.46
2023-04-06T01:45:09.655Z,62.52
2023-04-06T01:47:40.483Z,62.51
2023-04-06T01:50:13.871Z,62.78
2023-04-06T01:52:46.583Z,62.68
2023-04-06T01:55:16.662Z,62.94
2023-04-06T01:58:04.883Z,62.92
2023-04-06T02:00:39.843Z,62.95
2023-04-06T02:03:09.787Z,62.46
2023-04-06T02:05:39.970Z,62.13
2023-04-06T02:08:22.016Z,62.06
2023-04-06T02:10:52.025Z,62.32
2023-04-06T02:13:33.866Z,62.23
2023-04-06T02:16:04.239Z,62.12
2023-04-06T02:18:33.923Z,62.03
2023-04-06T02:21:03.726Z,61.88
2023-04-06T02:23:33.405Z,61.86
2023-04-06T02:26:03.074Z,61.76
2023-04-06T02:28:32.482Z,62.04
2023-04-06T02:31:04.750Z,62.19
2023-04-06T02:33:35.901Z,62.24
2023-04-06T02:36:06.537Z,62.13
2023-04-06T02:38:36.878Z,62.27
2023-04-06T02:41:06.584Z,62.31
2023-04-06T02:43:37.115Z,61.99
2023-04-06T02:46:17.889Z,61.95
2023-04-06T02:48:47.661Z,61.99
2023-04-06T02:51:17.442Z,62.06
2023-04-06T02:53:50.841Z,62.25
2023-04-06T02:56:22.965Z,62.44
2023-04-06T02:58:53.974Z,62.23
2023-04-06T03:01:25.307Z,62.28
2023-04-06T03:03:58.307Z,62.10
2023-04-06T03:06:29.364Z,62.26
2023-04-06T03:09:03.594Z,62.47
2023-04-06T03:11:34.506Z,62.56
2023-04-06T03:14:04.997Z,62.60
2023-04-06T03:16:37.564Z,62.79
2023-04-06T03:19:08.173Z,63.23
2023-04-06T03:21:37.602Z,63.06
2023-04-06T03:24:08.760Z,63.19
2023-04-06T03:26:38.293Z,63.15
2023-04-06T03:29:10.088Z,63.18
2023-04-06T03:31:39.830Z,63.55
2023-04-06T03:34:27.568Z,63.30
2023-04-06T03:37:09.337Z,63.46
2023-04-06T03:39:47.130Z,63.41
2023-04-06T03:42:24.344Z,63.42
2023-04-06T03:44:58.564Z,63.15
2023-04-06T03:47:28.866Z,63.06
2023-04-06T03:50:01.623Z,63.33
2023-04-06T03:52:34.744Z,63.32
2023-04-06T03:55:06.194Z,63.40
2023-04-06T03:57:36.136Z,63.43
2023-04-06T04:00:07.166Z,63.45
2023-04-06T04:02:43.721Z,63.41
2023-04-06T04:05:19.703Z,63.63
2023-04-06T04:07:51.979Z,63.69
2023-04-06T04:10:23.299Z,63.84
2023-04-06T04:12:52.830Z,64.07
2023-04-06T04:15:27.292Z,64.30
2023-04-06T04:18:00.945Z,64.72
2023-04-06T04:20:31.534Z,64.87
2023-04-06T04:23:01.324Z,64.50
2023-04-06T04:25:33.588Z,64.75
2023-04-06T04:28:04.125Z,64.42
2023-04-06T04:30:34.163Z,64.82
2023-04-06T04:33:06.832Z,65.30
2023-04-06T04:35:36.636Z,65.99
2023-04-06T04:38:07.636Z,66.02
2023-04-06T04:40:39.420Z,65.94
2023-04-06T04:43:13.594Z,67.08
2023-04-06T04:45:43.694Z,67.34
2023-04-06T04:48:21.772Z,67.94
2023-04-06T04:51:08.176Z,68.67
2023-04-06T04:53:50.257Z,69.60
2023-04-06T04:56:24.722Z,69.73
2023-04-06T04:58:58.325Z,70.75
2023-04-06T05:01:28.228Z,71.34
2023-04-06T05:03:59.349Z,72.13
2023-04-06T05:06:29.281Z,72.08
2023-04-06T05:08:59.129Z,73.12
2023-04-06T05:11:31.724Z,73.16
2023-04-06T05:14:03.110Z,73.84
2023-04-06T05:16:32.584Z,74.59
2023-04-06T05:19:03.561Z,74.72
2023-04-06T05:21:40.275Z,75.46
2023-04-06T05:24:11.050Z,76.43
2023-04-06T05:26:41.097Z,76.92
2023-04-06T05:29:18.527Z,77.56
2023-04-06T05:31:49.061Z,77.92
2023-04-06T05:34:19.656Z,77.77
2023-04-06T05:36:54.162Z,78.32
2023-04-06T05:39:28.100Z,78.67
2023-04-06T05:42:03.911Z,78.98
2023-04-06T05:44:47.851Z,79.34
2023-04-06T05:47:21.654Z,79.64
2023-04-06T05:49:56.500Z,80.29
2023-04-06T05:52:34.833Z,80.76
2023-04-06T05:55:05.861Z,81.46
2023-04-06T05:57:36.919Z,82.21
2023-04-06T06:00:17.214Z,82.78
2023-04-06T06:02:54.235Z,83.27
2023-04-06T06:05:26.645Z,83.35
2023-04-06T06:07:58.378Z,83.72
2023-04-06T06:10:34.248Z,83.81
2023-04-06T06:13:04.066Z,84.49
2023-04-06T06:15:41.220Z,84.55
2023-04-06T06:18:13.057Z,85.46
2023-04-06T06:20:44.250Z,86.05
2023-04-06T06:23:20.877Z,85.95
2023-04-06T06:25:53.679Z,86.66
2023-04-06T06:28:26.684Z,86.90
2023-04-06T06:31:01.542Z,87.07
2023-04-06T06:33:31.223Z,87.25
2023-04-06T06:36:04.765Z,87.26
2023-04-06T06:38:34.872Z,87.61
2023-04-06T06:41:05.052Z,86.99
2023-04-06T06:43:38.402Z,87.05
2023-04-06T06:46:12.189Z,87.35
2023-04-06T06:48:42.752Z,87.27
2023-04-06T06:51:13.190Z,87.30
2023-04-06T06:53:44.018Z,87.25
2023-04-06T06:56:15.242Z,87.13
2023-04-06T06:58:44.904Z,87.21
2023-04-06T07:01:14.569Z,87.14
2023-04-06T07:03:45.430Z,86.72
2023-04-06T07:06:15.928Z,86.98
2023-04-06T07:08:46.571Z,86.61
2023-04-06T07:11:16.069Z,86.23
2023-04-06T07:13:47.912Z,85.63
2023-04-06T07:16:24.392Z,85.02
2023-04-06T07:18:54.134Z,84.49
2023-04-06T07:21:24.750Z,83.86
2023-04-06T07:23:56.336Z,84.22
2023-04-06T07:26:29.426Z,84.13
2023-04-06T07:28:58.810Z,84.43
2023-04-06T07:31:29.428Z,84.71
2023-04-06T07:33:58.960Z,84.80
2023-04-06T07:36:30.568Z,84.97
2023-04-06T07:39:03.523Z,84.62
2023-04-06T07:41:34.357Z,84.66
2023-04-06T07:44:05.769Z,85.23
2023-04-06T07:46:37.791Z,85.53
2023-04-06T07:49:07.903Z,85.20
2023-04-06T07:51:41.216Z,85.40
2023-04-06T07:54:12.579Z,85.38
2023-04-06T07:56:44.348Z,85.32
2023-04-06T07:59:15.332Z,84.78
2023-04-06T08:01:50.719Z,84.57
2023-04-06T08:04:20.435Z,85.05
2023-04-06T08:06:54.729Z,84.61
2023-04-06T08:09:24.801Z,85.19
2023-04-06T08:11:55.144Z,83.90
2023-04-06T08:14:25.202Z,83.58
2023-04-06T08:16:54.887Z,83.87
2023-04-06T08:19:25.049Z,83.41
2023-04-06T08:21:55.433Z,83.08
2023-04-06T08:24:28.261Z,82.89
2023-04-06T08:27:00.659Z,83.24
2023-04-06T08:29:31.957Z,83.68
2023-04-06T08:32:06.597Z,83.36
2023-04-06T08:34:37.135Z,83.17
2023-04-06T08:37:10.090Z,83.18
2023-04-06T08:39:40.204Z,83.80
2023-04-06T08:42:22.133Z,83.45
2023-04-06T08:44:56.262Z,83.99
2023-04-06T08:47:26.466Z,83.85
2023-04-06T08:49:58.254Z,82.59
2023-04-06T08:52:29.829Z,83.07
2023-04-06T08:54:59.953Z,82.64
2023-04-06T08:57:31.751Z,82.90
2023-04-06T09:00:02.918Z,82.28
2023-04-06T09:02:34.237Z,82.40
2023-04-06T09:05:04.998Z,83.17
2023-04-06T09:07:35.202Z,83.22
2023-04-06T09:10:07.909Z,83.12
2023-04-06T09:12:37.472Z,82.34
2023-04-06T09:15:24.668Z,82.26
2023-04-06T09:17:56.079Z,82.35
2023-04-06T09:20:29.244Z,82.64
2023-04-06T09:22:58.748Z,81.61
2023-04-06T09:25:28.908Z,81.75
2023-04-06T09:28:04.471Z,81.38
2023-04-06T09:30:33.912Z,81.92
2023-04-06T09:33:04.006Z,82.74
2023-04-06T09:35:34.637Z,83.25
2023-04-06T09:38:13.625Z,82.88
2023-04-06T09:44:18.967Z,84.15
2023-04-06T09:47:12.634Z,81.72
2023-04-06T09:49:59.050Z,81.12
2023-04-06T09:52:35.409Z,81.13
2023-04-06T09:55:26.560Z,81.39
2023-04-06T09:58:31.140Z,81.43
2023-04-06T10:01:10.762Z,81.81
2023-04-06T10:03:57.545Z,82.08
2023-04-06T10:06:49.454Z,82.36
2023-04-06T10:09:19.858Z,82.18
2023-04-06T10:11:52.036Z,82.01
2023-04-06T10:14:24.489Z,80.44
2023-04-06T10:16:55.529Z,79.59
2023-04-06T10:19:30.862Z,79.44
2023-04-06T10:22:04.621Z,79.72
2023-04-06T10:24:33.824Z,78.76
2023-04-06T10:27:08.079Z,77.79
2023-04-06T10:29:50.212Z,77.81
2023-04-06T10:32:21.146Z,78.49
2023-04-06T10:35:06.767Z,78.22
2023-04-06T10:37:52.646Z,78.37
2023-04-06T10:40:31.600Z,76.57
2023-04-06T10:43:15.982Z,75.85
2023-04-06T10:45:46.200Z,76.75
2023-04-06T10:48:16.826Z,75.68
2023-04-06T10:50:51.188Z,75.71
2023-04-06T10:53:29.214Z,76.48
2023-04-06T10:55:59.427Z,76.28
2023-04-06T10:58:29.863Z,75.97
2023-04-06T11:01:01.914Z,76.63
2023-04-06T11:03:48.438Z,76.75
2023-04-06T11:06:32.634Z,76.70
2023-04-06T11:09:03.109Z,76.65
2023-04-06T11:11:32.936Z,77.06
2023-04-06T11:14:04.590Z,77.08
2023-04-06T11:16:34.714Z,77.02
2023-04-06T11:19:10.971Z,77.61
2023-04-06T11:21:42.875Z,76.82
2023-04-06T11:24:16.784Z,77.11
2023-04-06T11:27:02.907Z,76.93
2023-04-06T11:29:38.245Z,77.29
2023-04-06T11:32:12.147Z,77.83
2023-04-06T11:34:42.456Z,78.35
2023-04-06T11:37:23.261Z,77.89
2023-04-06T11:39:55.771Z,78.16
2023-04-06T11:42:27.885Z,79.01
2023-04-06T11:45:04.757Z,78.79
2023-04-06T11:47:37.818Z,77.65
2023-04-06T11:50:13.040Z,77.92
2023-04-06T11:52:44.260Z,78.51
2023-04-06T11:55:16.880Z,77.70
2023-04-06T11:57:46.777Z,77.96
2023-04-06T12:00:23.116Z,77.85
2023-04-06T12:02:53.037Z,77.84
2023-04-06T12:05:24.651Z,77.54
2023-04-06T12:07:54.371Z,77.56
2023-04-06T12:10:23.962Z,78.03
2023-04-06T12:12:53.203Z,78.98
2023-04-06T12:15:22.912Z,78.00
2023-04-06T12:17:52.729Z,78.44
2023-04-06T12:20:27.083Z,78.66
2023-04-06T12:22:57.652Z,77.34
2023-04-06T12:25:27.399Z,77.58
2023-04-06T12:27:57.380Z,76.66
2023-04-06T12:30:37.620Z,77.57
2023-04-06T12:33:20.631Z,76.64
2023-04-06T12:35:50.347Z,75.54
2023-04-06T12:38:22.212Z,76.63
2023-04-06T12:40:52.212Z,77.24
2023-04-06T12:43:22.016Z,78.29
2023-04-06T12:45:52.214Z,77.14
2023-04-06T12:48:26.337Z,75.71
2023-04-06T12:51:05.048Z,74.96
2023-04-06T12:53:36.172Z,76.01
2023-04-06T12:56:17.096Z,76.85
2023-04-06T12:58:50.018Z,77.15
2023-04-06T13:01:20.029Z,77.97
2023-04-06T13:03:55.363Z,77.55
2023-04-06T13:06:29.175Z,78.49
2023-04-06T13:09:01.506Z,79.07
2023-04-06T13:11:31.807Z,79.10
2023-04-06T13:14:04.500Z,78.80
2023-04-06T13:16:36.859Z,79.51
2023-04-06T13:19:06.762Z,79.23
2023-04-06T13:21:36.671Z,79.12
2023-04-06T13:24:37.136Z,78.31
2023-04-06T13:27:17.472Z,78.78
2023-04-06T13:30:01.002Z,78.91
2023-04-06T13:32:30.211Z,78.81
2023-04-06T13:34:59.864Z,79.13
2023-04-06T13:37:29.238Z,79.00
2023-04-06T13:39:58.820Z,79.10
2023-04-06T13:42:29.355Z,79.57
2023-04-06T13:44:59.262Z,79.94
2023-04-06T13:47:29.109Z,80.79
2023-04-06T13:49:59.025Z,80.91
2023-04-06T13:52:29.383Z,80.62
2023-04-06T13:55:05.102Z,80.47
2023-04-06T13:57:35.263Z,80.29
2023-04-06T14:00:08.178Z,80.17
2023-04-06T14:02:38.938Z,81.15
2023-04-06T14:05:17.591Z,80.24
2023-04-06T14:14:41.028Z,79.53
2023-04-06T14:17:13.744Z,79.81
2023-04-06T14:23:21.176Z,79.23
2023-04-06T14:26:07.010Z,78.89
2023-04-06T14:28:37.779Z,79.95
2023-04-06T14:31:16.786Z,79.97
2023-04-06T14:33:46.939Z,79.91
2023-04-06T14:36:30.962Z,80.73
2023-04-06T14:39:06.202Z,80.40
2023-04-06T14:41:44.070Z,80.21
2023-04-06T14:44:22.319Z,79.42
2023-04-06T14:46:52.641Z,79.71
2023-04-06T14:49:22.911Z,79.84
2023-04-06T14:51:54.652Z,79.60
2023-04-06T14:54:34.277Z,79.76
2023-04-06T14:57:04.912Z,80.78
2023-04-06T14:59:55.916Z,81.07
2023-04-06T15:02:37.600Z,81.35
2023-04-06T15:05:11.447Z,81.66
2023-04-06T15:07:46.516Z,80.64
2023-04-06T15:10:18.460Z,80.45
2023-04-06T15:12:49.898Z,79.77
2023-04-06T15:15:37.368Z,79.77
2023-04-06T15:18:17.756Z,78.90
2023-04-06T15:20:54.296Z,78.04
2023-04-06T15:23:24.681Z,77.82
2023-04-06T15:25:54.640Z,78.43
2023-04-06T15:28:25.026Z,78.39
2023-04-06T15:30:56.090Z,77.75
2023-04-06T15:33:25.794Z,78.13
2023-04-06T15:35:56.339Z,77.81
2023-04-06T15:38:25.802Z,77.58
2023-04-06T15:40:55.874Z,77.76
2023-04-06T15:43:26.220Z,77.62
2023-04-06T15:45:57.712Z,77.26
2023-04-06T15:48:26.937Z,76.01
2023-04-06T15:50:59.284Z,76.04
2023-04-06T15:53:29.916Z,76.32
2023-04-06T15:56:05.533Z,75.98
2023-04-06T15:58:35.276Z,75.98
2023-04-06T16:01:22.640Z,75.66
2023-04-06T16:03:52.706Z,75.57
2023-04-06T16:06:30.641Z,75.49
2023-04-06T16:08:59.994Z,75.79
2023-04-06T16:11:51.332Z,76.38
2023-04-06T16:14:20.289Z,75.74
2023-04-06T16:16:57.621Z,75.53
2023-04-06T16:19:30.924Z,75.27
2023-04-06T16:22:16.098Z,75.39
2023-04-06T16:24:48.557Z,75.23
2023-04-06T16:27:18.521Z,76.02
2023-04-06T16:29:48.397Z,76.03
2023-04-06T16:32:18.844Z,75.77
2023-04-06T16:34:51.514Z,75.83
2023-04-06T16:37:20.752Z,75.88
2023-04-06T16:39:50.796Z,76.28
2023-04-06T16:42:21.696Z,76.12
2023-04-06T16:44:51.926Z,75.67
2023-04-06T16:47:21.358Z,76.26
2023-04-06T16:49:52.673Z,76.13
2023-04-06T16:52:21.820Z,75.80
2023-04-06T16:54:52.057Z,76.38
2023-04-06T16:57:21.531Z,76.43
2023-04-06T16:59:52.188Z,76.67
2023-04-06T17:02:22.197Z,76.47
2023-04-06T17:04:52.106Z,76.81
2023-04-06T17:07:26.948Z,76.54
2023-04-06T17:09:56.026Z,76.85
2023-04-06T17:12:25.685Z,76.37
2023-04-06T17:14:55.723Z,76.28
2023-04-06T17:17:25.092Z,76.52
2023-04-06T17:19:54.204Z,76.30
2023-04-06T17:22:24.898Z,76.73
2023-04-06T17:24:55.298Z,76.84
2023-04-06T17:27:27.206Z,77.20
2023-04-06T17:29:58.068Z,77.65
2023-04-06T17:32:28.491Z,77.36
2023-04-06T17:34:59.437Z,77.47
2023-04-06T17:37:28.963Z,77.78
2023-04-06T17:39:59.042Z,77.66
2023-04-06T17:42:36.104Z,77.73
2023-04-06T17:45:06.945Z,77.89
2023-04-06T17:47:36.810Z,77.81
2023-04-06T17:50:07.374Z,77.81
2023-04-06T17:52:38.536Z,77.64
2023-04-06T17:55:08.867Z,77.50
2023-04-06T17:57:41.035Z,77.60
2023-04-06T18:00:15.630Z,77.29
2023-04-06T18:02:47.175Z,77.18
2023-04-06T18:05:16.934Z,77.45
2023-04-06T18:07:47.818Z,78.03
2023-04-06T18:10:18.452Z,78.42
2023-04-06T18:12:47.706Z,78.77
2023-04-06T18:15:18.414Z,78.84
2023-04-06T18:17:48.169Z,79.17
2023-04-06T18:20:18.345Z,79.56
2023-04-06T18:22:48.000Z,79.76
2023-04-06T18:25:21.656Z,79.83
2023-04-06T18:27:51.930Z,80.36
2023-04-06T18:30:21.392Z,80.82
2023-04-06T18:32:53.308Z,80.71
2023-04-06T18:35:23.152Z,80.75
2023-04-06T18:37:53.392Z,80.97
2023-04-06T18:40:35.598Z,81.46
2023-04-06T18:43:07.551Z,81.62
2023-04-06T18:45:43.772Z,81.59
2023-04-06T18:48:14.712Z,82.22
2023-04-06T18:51:02.514Z,82.47
2023-04-06T18:53:43.201Z,82.52
2023-04-06T18:56:20.110Z,82.41
2023-04-06T18:58:52.550Z,82.64
2023-04-06T19:01:29.867Z,82.32
2023-04-06T19:04:00.587Z,82.34
2023-04-06T19:06:31.557Z,82.21
2023-04-06T19:09:04.433Z,82.16
2023-04-06T19:11:34.406Z,82.22
2023-04-06T19:14:04.830Z,82.21
2023-04-06T19:16:42.259Z,82.44
2023-04-06T19:19:12.653Z,82.46
2023-04-06T19:21:45.230Z,82.39
2023-04-06T19:24:14.590Z,82.47
2023-04-06T19:26:44.208Z,82.35
2023-04-06T19:29:16.822Z,82.47
2023-04-06T19:31:46.253Z,82.52
2023-04-06T19:34:18.881Z,82.29
2023-04-06T19:36:48.854Z,82.38
2023-04-06T19:39:18.996Z,82.46
2023-04-06T19:41:48.869Z,82.63
2023-04-06T19:44:19.040Z,82.39
2023-04-06T19:46:48.682Z,82.19
2023-04-06T19:49:18.257Z,82.04
2023-04-06T19:51:47.964Z,81.96
2023-04-06T19:54:17.723Z,81.69
2023-04-06T19:56:48.379Z,81.55
2023-04-06T19:59:18.335Z,81.93
2023-04-06T20:01:47.547Z,81.92
2023-04-06T20:04:17.478Z,81.61
2023-04-06T20:06:54.067Z,81.43
2023-04-06T20:09:30.031Z,81.53
2023-04-06T20:12:03.536Z,81.64
2023-04-06T20:14:43.943Z,81.66
2023-04-06T20:17:14.318Z,81.74
2023-04-06T20:19:43.841Z,81.66
2023-04-06T20:22:20.999Z,81.77
2023-04-06T20:24:51.055Z,81.91
2023-04-06T20:27:21.637Z,81.92
2023-04-06T20:29:51.022Z,81.84
2023-04-06T20:32:21.199Z,81.79
2023-04-06T20:34:51.219Z,81.68
2023-04-06T20:37:22.071Z,81.66
2023-04-06T20:39:55.497Z,81.53
2023-04-06T20:42:26.088Z,81.67
2023-04-06T20:44:57.648Z,81.71
2023-04-06T20:47:28.496Z,81.56
2023-04-06T20:49:57.943Z,81.42
2023-04-06T20:52:33.086Z,81.10
2023-04-06T20:55:06.576Z,80.81
2023-04-06T20:57:36.367Z,80.47
2023-04-06T21:00:23.160Z,80.35
2023-04-06T21:02:53.497Z,80.56
2023-04-06T21:05:23.510Z,80.28
2023-04-06T21:07:54.662Z,80.66
2023-04-06T21:10:24.589Z,80.54
2023-04-06T21:12:54.552Z,80.16
2023-04-06T21:15:24.049Z,80.12
2023-04-06T21:17:54.144Z,79.90
2023-04-06T21:20:24.324Z,79.84
2023-04-06T21:22:54.028Z,80.14
2023-04-06T21:25:24.644Z,79.93
2023-04-06T21:27:54.715Z,79.94
2023-04-06T21:30:24.688Z,80.00
2023-04-06T21:32:55.910Z,80.18
2023-04-06T21:35:25.741Z,80.25
2023-04-06T21:37:55.301Z,79.89
2023-04-06T21:40:25.466Z,80.01
2023-04-06T21:46:26.191Z,80.30
2023-04-06T21:48:57.286Z,80.28
2023-04-06T21:51:41.530Z,80.44
2023-04-06T21:54:14.238Z,80.25
2023-04-06T22:00:47.054Z,81.21
2023-04-06T22:03:17.187Z,81.55
2023-04-06T22:05:47.447Z,81.32
2023-04-06T22:08:25.298Z,81.54
2023-04-06T22:11:01.865Z,81.82
2023-04-06T22:13:32.332Z,81.70
2023-04-06T22:16:02.569Z,81.71
2023-04-06T22:18:32.497Z,81.84
2023-04-06T22:21:04.029Z,81.89
2023-04-06T22:23:34.077Z,81.76
2023-04-06T22:26:03.620Z,81.79
2023-04-06T22:28:33.370Z,82.04
2023-04-06T22:31:02.962Z,82.08
2023-04-06T22:33:33.030Z,82.22
2023-04-06T22:36:03.551Z,82.14
2023-04-06T22:38:33.548Z,82.08
2023-04-06T22:41:03.671Z,82.03
2023-04-06T22:43:33.584Z,82.18
2023-04-06T22:46:04.082Z,82.21
2023-04-06T22:48:34.083Z,81.89
2023-04-06T22:51:12.032Z,81.88
2023-04-06T22:53:42.272Z,81.84
2023-04-06T22:56:12.301Z,81.97
2023-04-06T22:58:42.397Z,82.22
2023-04-06T23:01:13.460Z,82.04
2023-04-06T23:03:44.083Z,82.42
2023-04-06T23:06:14.814Z,82.32
2023-04-06T23:08:43.918Z,82.51
2023-04-06T23:11:13.884Z,82.62
2023-04-06T23:13:43.020Z,82.75
2023-04-06T23:16:13.045Z,82.72
2023-04-06T23:18:42.558Z,83.06
2023-04-06T23:21:13.038Z,83.27
2023-04-06T23:23:42.640Z,83.19
2023-04-06T23:26:13.046Z,82.52
2023-04-06T23:28:43.049Z,82.80
2023-04-06T23:31:12.128Z,82.74
2023-04-06T23:33:41.662Z,83.16
2023-04-06T23:36:11.644Z,83.10
2023-04-06T23:38:41.755Z,83.26
2023-04-06T23:41:16.384Z,83.72
2023-04-06T23:43:45.790Z,83.82
2023-04-06T23:46:19.731Z,83.98
2023-04-06T23:48:48.827Z,83.67
2023-04-06T23:51:18.665Z,83.52
2023-04-06T23:53:49.324Z,83.26
2023-04-06T23:56:20.032Z,82.86
2023-04-06T23:58:49.916Z,82.78
